createdAt,value
2022-09-23T00:00:57.152Z,0.00
2022-09-23T00:01:57.171Z,0.00
2022-09-23T00:02:57.220Z,0.00
2022-09-23T00:03:57.915Z,0.00
2022-09-23T00:04:57.084Z,0.00
2022-09-23T00:05:57.072Z,0.00
2022-09-23T00:06:57.042Z,0.00
2022-09-23T00:07:57.080Z,0.00
2022-09-23T00:08:57.063Z,0.00
2022-09-23T00:09:57.034Z,0.00
2022-09-23T00:10:57.033Z,0.00
2022-09-23T00:11:56.992Z,0.00
2022-09-23T00:12:56.987Z,0.00
2022-09-23T00:13:56.995Z,0.00
2022-09-23T00:14:56.977Z,0.00
2022-09-23T00:15:56.942Z,0.00
2022-09-23T00:16:57.017Z,0.00
2022-09-23T00:17:56.903Z,0.00
2022-09-23T00:18:56.937Z,0.00
2022-09-23T00:19:56.928Z,0.00
2022-09-23T00:20:56.886Z,0.00
2022-09-23T00:21:56.928Z,0.00
2022-09-23T00:22:56.887Z,0.00
2022-09-23T00:23:56.844Z,0.00
2022-09-23T00:24:56.930Z,0.00
2022-09-23T00:25:56.807Z,0.00
2022-09-23T00:26:56.862Z,0.00
2022-09-23T00:27:57.327Z,0.00
2022-09-23T00:28:57.802Z,0.00
2022-09-23T00:29:57.992Z,0.00
2022-09-23T00:30:56.903Z,0.00
2022-09-23T00:31:56.828Z,0.00
2022-09-23T00:32:56.778Z,0.00
2022-09-23T00:33:56.734Z,0.00
2022-09-23T00:34:56.725Z,0.00
2022-09-23T00:35:57.815Z,0.00
2022-09-23T00:36:56.755Z,0.00
2022-09-23T00:37:56.676Z,0.00
2022-09-23T00:38:56.683Z,0.00
2022-09-23T00:39:56.649Z,0.00
2022-09-23T00:40:56.634Z,0.00
2022-09-23T00:41:57.761Z,0.00
2022-09-23T00:42:56.576Z,0.00
2022-09-23T00:43:56.576Z,0.00
2022-09-23T00:44:56.553Z,0.00
2022-09-23T00:45:56.613Z,0.00
2022-09-23T00:46:56.843Z,0.00
2022-09-23T00:47:56.517Z,0.00
2022-09-23T00:48:56.544Z,0.00
2022-09-23T00:49:56.535Z,0.00
2022-09-23T00:50:56.551Z,0.00
2022-09-23T00:51:56.472Z,0.00
2022-09-23T00:52:56.496Z,0.00
2022-09-23T00:53:56.452Z,0.00
2022-09-23T00:54:56.464Z,0.00
2022-09-23T00:55:56.427Z,0.00
2022-09-23T00:56:56.406Z,0.00
2022-09-23T00:57:56.460Z,0.00
2022-09-23T00:58:56.391Z,0.00
2022-09-23T00:59:56.357Z,0.00
2022-09-23T01:00:56.403Z,0.00
2022-09-23T01:01:56.406Z,0.00
2022-09-23T01:02:56.318Z,0.00
2022-09-23T01:03:56.344Z,0.00
2022-09-23T01:04:56.323Z,0.00
2022-09-23T01:05:56.320Z,0.00
2022-09-23T01:06:56.275Z,0.00
2022-09-23T01:07:56.272Z,0.00
2022-09-23T01:08:56.572Z,0.00
2022-09-23T01:09:56.253Z,0.00
2022-09-23T01:10:56.260Z,0.00
2022-09-23T01:11:56.229Z,0.00
2022-09-23T01:12:56.339Z,0.00
2022-09-23T01:13:56.200Z,0.00
2022-09-23T01:14:56.193Z,0.00
2022-09-23T01:15:56.203Z,0.00
2022-09-23T01:16:56.218Z,0.00
2022-09-23T01:17:56.157Z,0.00
2022-09-23T01:18:56.163Z,0.00
2022-09-23T01:19:56.136Z,0.00
2022-09-23T01:20:57.069Z,0.00
2022-09-23T01:21:56.200Z,0.00
2022-09-23T01:22:56.124Z,0.00
2022-09-23T01:23:56.084Z,0.00
2022-09-23T01:24:56.041Z,0.00
2022-09-23T01:25:56.076Z,0.00
2022-09-23T01:26:56.022Z,0.00
2022-09-23T01:27:56.101Z,0.00
2022-09-23T01:28:55.985Z,0.00
2022-09-23T01:29:55.976Z,0.00
2022-09-23T01:30:56.073Z,0.00
2022-09-23T01:31:55.986Z,0.00
2022-09-23T01:32:56.965Z,0.00
2022-09-23T01:33:55.936Z,0.00
2022-09-23T01:34:55.970Z,0.00
2022-09-23T01:35:56.028Z,0.00
2022-09-23T01:36:55.887Z,0.00
2022-09-23T01:37:55.886Z,0.00
2022-09-23T01:38:56.618Z,0.00
2022-09-23T01:39:55.847Z,0.00
2022-09-23T01:40:55.879Z,0.00
2022-09-23T01:41:56.608Z,0.00
2022-09-23T01:42:55.811Z,0.00
2022-09-23T01:43:55.849Z,0.00
2022-09-23T01:44:55.884Z,0.00
2022-09-23T01:45:55.813Z,0.00
2022-09-23T01:46:55.904Z,0.00
2022-09-23T01:47:55.877Z,0.00
2022-09-23T01:48:55.749Z,0.00
2022-09-23T01:49:55.720Z,0.00
2022-09-23T01:50:55.726Z,0.00
2022-09-23T01:51:56.439Z,0.00
2022-09-23T01:52:56.338Z,0.00
2022-09-23T01:53:55.673Z,0.00
2022-09-23T01:54:55.690Z,0.00
2022-09-23T01:55:55.640Z,0.00
2022-09-23T01:56:55.748Z,0.00
2022-09-23T01:57:55.868Z,0.00
2022-09-23T01:58:55.800Z,0.00
2022-09-23T01:59:55.660Z,0.00
2022-09-23T02:00:55.636Z,0.00
2022-09-23T02:01:55.579Z,0.00
2022-09-23T02:02:55.551Z,0.00
2022-09-23T02:03:55.539Z,0.00
2022-09-23T02:04:55.556Z,0.00
2022-09-23T02:05:55.557Z,0.00
2022-09-23T02:06:55.678Z,0.00
2022-09-23T02:07:55.520Z,0.00
2022-09-23T02:08:56.577Z,0.00
2022-09-23T02:09:55.505Z,0.00
2022-09-23T02:10:55.501Z,0.00
2022-09-23T02:11:55.474Z,0.00
2022-09-23T02:12:55.697Z,0.00
2022-09-23T02:13:55.432Z,0.00
2022-09-23T02:14:55.448Z,0.00
2022-09-23T02:15:55.405Z,0.00
2022-09-23T02:16:55.434Z,0.00
2022-09-23T02:17:55.380Z,0.00
2022-09-23T02:18:55.354Z,0.00
2022-09-23T02:19:55.517Z,0.00
2022-09-23T02:20:55.387Z,0.00
2022-09-23T02:21:55.334Z,0.00
2022-09-23T02:22:55.314Z,0.00
2022-09-23T02:23:55.326Z,0.00
2022-09-23T02:24:55.327Z,0.00
2022-09-23T02:25:55.337Z,0.00
2022-09-23T02:26:55.387Z,0.00
2022-09-23T02:27:55.227Z,0.00
2022-09-23T02:28:55.268Z,0.00
2022-09-23T02:29:55.564Z,0.00
2022-09-23T02:30:55.202Z,0.00
2022-09-23T02:31:55.308Z,0.00
2022-09-23T02:32:55.204Z,0.00
2022-09-23T02:33:55.256Z,0.00
2022-09-23T02:34:55.141Z,0.00
2022-09-23T02:35:55.159Z,0.00
2022-09-23T02:36:55.180Z,0.00
2022-09-23T02:37:55.136Z,0.00
2022-09-23T02:38:56.245Z,0.00
2022-09-23T02:39:55.159Z,0.00
2022-09-23T02:40:55.580Z,0.00
2022-09-23T02:41:55.114Z,0.00
2022-09-23T02:42:55.503Z,0.00
2022-09-23T02:43:55.069Z,0.00
2022-09-23T02:44:55.070Z,0.00
2022-09-23T02:45:55.183Z,0.00
2022-09-23T02:46:55.000Z,0.00
2022-09-23T02:47:54.998Z,0.00
2022-09-23T02:48:54.987Z,0.00
2022-09-23T02:49:54.942Z,0.00
2022-09-23T02:50:55.179Z,0.00
2022-09-23T02:51:54.967Z,0.00
2022-09-23T02:52:54.987Z,0.00
2022-09-23T02:53:54.939Z,0.00
2022-09-23T02:54:54.934Z,0.00
2022-09-23T02:55:54.892Z,0.00
2022-09-23T02:56:54.860Z,0.00
2022-09-23T02:57:54.931Z,0.00
2022-09-23T02:58:54.959Z,0.00
2022-09-23T02:59:54.966Z,0.00
2022-09-23T03:00:54.874Z,0.00
2022-09-23T03:01:55.606Z,0.00
2022-09-23T03:02:54.801Z,0.00
2022-09-23T03:03:55.117Z,0.00
2022-09-23T03:04:54.883Z,0.00
2022-09-23T03:05:54.819Z,0.00
2022-09-23T03:06:54.775Z,0.00
2022-09-23T03:07:54.731Z,0.00
2022-09-23T03:08:55.930Z,0.00
2022-09-23T03:09:54.689Z,0.00
2022-09-23T03:10:54.682Z,0.00
2022-09-23T03:11:54.714Z,0.00
2022-09-23T03:12:55.548Z,0.00
2022-09-23T03:13:54.860Z,0.00
2022-09-23T03:14:54.699Z,0.00
2022-09-23T03:15:54.663Z,0.00
2022-09-23T03:16:54.943Z,0.00
2022-09-23T03:17:54.625Z,0.00
2022-09-23T03:18:55.472Z,0.00
2022-09-23T03:19:55.388Z,0.00
2022-09-23T03:20:54.607Z,0.00
2022-09-23T03:21:54.633Z,0.00
2022-09-23T03:22:54.558Z,0.00
2022-09-23T03:23:54.539Z,0.00
2022-09-23T03:24:54.536Z,0.00
2022-09-23T03:25:54.567Z,0.00
2022-09-23T03:26:55.747Z,0.00
2022-09-23T03:27:54.946Z,0.00
2022-09-23T03:28:54.527Z,0.00
2022-09-23T03:29:54.453Z,0.00
2022-09-23T03:30:54.594Z,0.00
2022-09-23T03:31:54.558Z,0.00
2022-09-23T03:32:54.432Z,0.00
2022-09-23T03:33:54.446Z,0.00
2022-09-23T03:34:54.391Z,0.00
2022-09-23T03:35:54.404Z,0.00
2022-09-23T03:36:54.497Z,0.00
2022-09-23T03:37:54.384Z,0.00
2022-09-23T03:38:55.095Z,0.00
2022-09-23T03:39:55.409Z,0.00
2022-09-23T03:40:54.411Z,0.00
2022-09-23T03:41:54.351Z,0.00
2022-09-23T03:42:54.348Z,0.00
2022-09-23T03:43:55.133Z,0.00
2022-09-23T03:44:54.403Z,0.00
2022-09-23T03:45:54.434Z,0.00
2022-09-23T03:46:54.276Z,0.00
2022-09-23T03:47:55.059Z,0.00
2022-09-23T03:48:55.100Z,0.00
2022-09-23T03:49:55.072Z,0.00
2022-09-23T03:50:54.209Z,0.00
2022-09-23T03:51:54.271Z,0.00
2022-09-23T03:52:54.347Z,0.00
2022-09-23T03:53:55.200Z,0.00
2022-09-23T03:54:54.259Z,0.00
2022-09-23T03:55:54.997Z,0.00
2022-09-23T03:56:54.327Z,0.00
2022-09-23T03:57:55.319Z,0.00
2022-09-23T03:58:54.391Z,0.00
2022-09-23T03:59:54.154Z,0.00
2022-09-23T04:00:54.143Z,0.00
2022-09-23T04:01:54.207Z,0.00
2022-09-23T04:02:54.328Z,0.00
2022-09-23T04:03:54.223Z,0.00
2022-09-23T04:04:54.331Z,0.00
2022-09-23T04:05:54.001Z,0.00
2022-09-23T04:06:54.967Z,0.00
2022-09-23T04:07:54.885Z,0.00
2022-09-23T04:08:54.034Z,0.00
2022-09-23T04:09:53.994Z,0.00
2022-09-23T04:10:54.940Z,0.00
2022-09-23T04:11:54.068Z,0.00
2022-09-23T04:12:54.062Z,0.00
2022-09-23T04:13:54.813Z,0.00
2022-09-23T04:14:54.717Z,0.00
2022-09-23T04:15:54.966Z,0.00
2022-09-23T04:16:53.852Z,0.00
2022-09-23T04:17:53.890Z,0.00
2022-09-23T04:18:54.014Z,0.00
2022-09-23T04:19:53.882Z,0.00
2022-09-23T04:20:53.838Z,0.00
2022-09-23T04:21:53.992Z,0.00
2022-09-23T04:22:53.995Z,0.00
2022-09-23T04:23:53.774Z,0.00
2022-09-23T04:24:53.862Z,0.00
2022-09-23T04:25:54.702Z,0.00
2022-09-23T04:26:53.879Z,0.00
2022-09-23T04:27:53.783Z,0.00
2022-09-23T04:28:53.705Z,0.00
2022-09-23T04:29:53.690Z,0.00
2022-09-23T04:30:53.831Z,0.00
2022-09-23T04:31:53.763Z,0.00
2022-09-23T04:32:54.544Z,0.00
2022-09-23T04:33:54.031Z,0.00
2022-09-23T04:34:53.634Z,0.00
2022-09-23T04:35:54.829Z,0.00
2022-09-23T04:36:53.603Z,0.00
2022-09-23T04:37:54.163Z,0.00
2022-09-23T04:38:53.692Z,0.00
2022-09-23T04:39:54.365Z,0.00
2022-09-23T04:40:53.633Z,0.00
2022-09-23T04:41:54.703Z,0.00
2022-09-23T04:42:54.590Z,0.00
2022-09-23T04:43:53.796Z,0.00
2022-09-23T04:44:53.477Z,0.00
2022-09-23T04:45:53.487Z,0.00
2022-09-23T04:46:54.554Z,0.00
2022-09-23T04:47:53.462Z,0.00
2022-09-23T04:48:53.447Z,0.00
2022-09-23T04:49:57.748Z,0.00
2022-09-23T04:50:54.433Z,0.00
2022-09-23T04:51:53.514Z,0.00
2022-09-23T04:52:53.500Z,0.00
2022-09-23T04:53:53.400Z,5.62
2022-09-23T04:54:54.450Z,5.62
2022-09-23T04:55:53.383Z,5.62
2022-09-23T04:56:53.363Z,5.62
2022-09-23T04:57:53.354Z,5.62
2022-09-23T04:58:53.295Z,5.62
2022-09-23T04:59:53.376Z,11.25
2022-09-23T05:00:53.782Z,11.25
2022-09-23T05:01:54.334Z,11.25
2022-09-23T05:02:53.304Z,11.25
2022-09-23T05:03:53.263Z,16.88
2022-09-23T05:04:53.282Z,16.88
2022-09-23T05:05:53.884Z,16.88
2022-09-23T05:06:53.243Z,16.88
2022-09-23T05:07:53.189Z,22.50
2022-09-23T05:08:53.210Z,22.50
2022-09-23T05:09:53.158Z,22.50
2022-09-23T05:10:53.184Z,22.50
2022-09-23T05:11:53.294Z,22.50
2022-09-23T05:12:57.027Z,22.50
2022-09-23T05:13:54.090Z,22.50
2022-09-23T05:14:53.138Z,22.50
2022-09-23T05:15:54.018Z,28.12
2022-09-23T05:16:53.879Z,28.12
2022-09-23T05:17:53.306Z,28.12
2022-09-23T05:18:54.026Z,28.12
2022-09-23T05:19:53.301Z,33.75
2022-09-23T05:20:53.129Z,33.75
2022-09-23T05:21:53.158Z,33.75
2022-09-23T05:22:53.011Z,39.38
2022-09-23T05:23:52.994Z,39.38
2022-09-23T05:24:53.152Z,39.38
2022-09-23T05:25:53.271Z,45.00
2022-09-23T05:26:52.954Z,45.00
2022-09-23T05:27:53.066Z,45.00
2022-09-23T05:28:53.764Z,45.00
2022-09-23T05:29:52.922Z,50.62
2022-09-23T05:30:52.918Z,50.62
2022-09-23T05:31:53.010Z,50.62
2022-09-23T05:32:52.979Z,56.25
2022-09-23T05:33:52.884Z,56.25
2022-09-23T05:34:52.999Z,61.88
2022-09-23T05:35:52.875Z,67.50
2022-09-23T05:36:52.862Z,67.50
2022-09-23T05:37:52.983Z,73.12
2022-09-23T05:38:52.844Z,73.12
2022-09-23T05:39:52.823Z,78.75
2022-09-23T05:40:52.965Z,84.38
2022-09-23T05:41:53.534Z,90.00
2022-09-23T05:42:52.801Z,90.00
2022-09-23T05:43:52.966Z,95.62
2022-09-23T05:44:52.727Z,101.25
2022-09-23T05:45:52.800Z,106.88
2022-09-23T05:46:53.627Z,101.25
2022-09-23T05:47:52.730Z,106.88
2022-09-23T05:48:52.678Z,112.50
2022-09-23T05:49:59.995Z,118.12
2022-09-23T05:50:53.897Z,118.12
2022-09-23T05:51:52.690Z,123.75
2022-09-23T05:52:52.987Z,129.38
2022-09-23T05:53:52.727Z,129.38
2022-09-23T05:54:52.617Z,135.00
2022-09-23T05:55:52.697Z,135.00
2022-09-23T05:56:52.617Z,140.62
2022-09-23T05:57:52.628Z,140.62
2022-09-23T05:58:52.991Z,146.25
2022-09-23T05:59:52.527Z,146.25
2022-09-23T06:00:52.544Z,151.88
2022-09-23T06:01:56.308Z,151.88
2022-09-23T06:02:52.554Z,157.50
2022-09-23T06:03:52.498Z,157.50
2022-09-23T06:04:52.688Z,157.50
2022-09-23T06:05:52.607Z,163.12
2022-09-23T06:06:52.519Z,163.12
2022-09-23T06:07:52.519Z,163.12
2022-09-23T06:08:52.427Z,168.75
2022-09-23T06:09:52.422Z,168.75
2022-09-23T06:10:54.622Z,168.75
2022-09-23T06:11:53.207Z,168.75
2022-09-23T06:12:52.377Z,174.38
2022-09-23T06:13:52.348Z,180.00
2022-09-23T06:14:52.351Z,180.00
2022-09-23T06:15:52.381Z,185.62
2022-09-23T06:16:52.340Z,180.00
2022-09-23T06:17:52.379Z,180.00
2022-09-23T06:18:52.320Z,185.62
2022-09-23T06:19:52.271Z,191.25
2022-09-23T06:20:52.371Z,202.50
2022-09-23T06:21:52.320Z,202.50
2022-09-23T06:22:55.206Z,202.50
2022-09-23T06:23:55.808Z,196.88
2022-09-23T06:24:53.158Z,191.25
2022-09-23T06:25:53.644Z,185.62
2022-09-23T06:26:52.183Z,174.38
2022-09-23T06:27:52.345Z,168.75
2022-09-23T06:28:52.160Z,157.50
2022-09-23T06:29:52.203Z,151.88
2022-09-23T06:30:52.212Z,146.25
2022-09-23T06:31:52.261Z,151.88
2022-09-23T06:32:53.134Z,157.50
2022-09-23T06:34:02.322Z,163.12
2022-09-23T06:34:53.126Z,163.12
2022-09-23T06:35:58.894Z,168.75
2022-09-23T06:36:53.130Z,168.75
2022-09-23T06:37:52.040Z,174.38
2022-09-23T06:38:52.200Z,180.00
2022-09-23T06:39:52.071Z,185.62
2022-09-23T06:40:52.492Z,196.88
2022-09-23T06:41:52.305Z,196.88
2022-09-23T06:42:52.824Z,208.12
2022-09-23T06:43:52.082Z,213.75
2022-09-23T06:44:51.986Z,225.00
2022-09-23T06:45:52.364Z,230.62
2022-09-23T06:46:52.442Z,241.88
2022-09-23T06:47:52.363Z,253.12
2022-09-23T06:48:52.376Z,258.75
2022-09-23T06:49:51.904Z,258.75
2022-09-23T06:50:53.051Z,258.75
2022-09-23T06:51:51.921Z,264.38
2022-09-23T06:52:51.934Z,264.38
2022-09-23T06:53:52.761Z,264.38
2022-09-23T06:54:51.907Z,270.00
2022-09-23T06:55:51.828Z,275.62
2022-09-23T06:56:51.839Z,275.62
2022-09-23T06:57:51.816Z,275.62
2022-09-23T06:58:51.840Z,281.25
2022-09-23T06:59:51.834Z,281.25
2022-09-23T07:00:51.769Z,281.25
2022-09-23T07:01:52.579Z,281.25
2022-09-23T07:02:51.783Z,281.25
2022-09-23T07:03:52.834Z,281.25
2022-09-23T07:04:51.817Z,275.62
2022-09-23T07:05:51.720Z,275.62
2022-09-23T07:06:51.696Z,270.00
2022-09-23T07:07:51.674Z,270.00
2022-09-23T07:08:52.220Z,270.00
2022-09-23T07:09:52.550Z,270.00
2022-09-23T07:10:51.740Z,270.00
2022-09-23T07:11:51.705Z,264.38
2022-09-23T07:12:52.477Z,264.38
2022-09-23T07:13:51.617Z,264.38
2022-09-23T07:14:51.599Z,264.38
2022-09-23T07:15:51.600Z,264.38
2022-09-23T07:16:51.731Z,264.38
2022-09-23T07:17:51.677Z,264.38
2022-09-23T07:18:51.489Z,264.38
2022-09-23T07:19:52.192Z,264.38
2022-09-23T07:20:51.579Z,258.75
2022-09-23T07:21:51.513Z,258.75
2022-09-23T07:22:51.751Z,258.75
2022-09-23T07:23:51.542Z,258.75
2022-09-23T07:24:52.357Z,258.75
2022-09-23T07:25:51.504Z,258.75
2022-09-23T07:26:51.895Z,253.12
2022-09-23T07:27:52.141Z,253.12
2022-09-23T07:28:52.471Z,253.12
2022-09-23T07:29:51.391Z,253.12
2022-09-23T07:30:59.081Z,253.12
2022-09-23T07:31:53.212Z,258.75
2022-09-23T07:32:51.406Z,258.75
2022-09-23T07:33:52.503Z,258.75
2022-09-23T07:34:51.334Z,258.75
2022-09-23T07:35:51.287Z,258.75
2022-09-23T07:36:51.311Z,258.75
2022-09-23T07:37:51.334Z,258.75
2022-09-23T07:38:51.324Z,258.75
2022-09-23T07:39:51.305Z,258.75
2022-09-23T07:40:51.522Z,258.75
2022-09-23T07:41:52.253Z,258.75
2022-09-23T07:42:51.394Z,258.75
2022-09-23T07:43:51.335Z,258.75
2022-09-23T07:44:51.275Z,258.75
2022-09-23T07:45:51.148Z,258.75
2022-09-23T07:46:51.388Z,258.75
2022-09-23T07:47:51.115Z,258.75
2022-09-23T07:48:51.360Z,258.75
2022-09-23T07:49:51.396Z,258.75
2022-09-23T07:50:51.184Z,258.75
2022-09-23T07:51:51.111Z,258.75
2022-09-23T07:52:52.247Z,258.75
2022-09-23T07:53:51.107Z,258.75
2022-09-23T07:54:51.358Z,258.75
2022-09-23T07:55:51.122Z,258.75
2022-09-23T07:56:51.069Z,253.12
2022-09-23T07:57:52.254Z,253.12
2022-09-23T07:58:50.989Z,253.12
2022-09-23T07:59:50.991Z,247.50
2022-09-23T08:00:51.019Z,247.50
2022-09-23T08:01:51.908Z,247.50
2022-09-23T08:02:53.146Z,247.50
2022-09-23T08:03:50.927Z,247.50
2022-09-23T08:04:50.972Z,247.50
2022-09-23T08:05:51.991Z,247.50
2022-09-23T08:06:51.901Z,247.50
2022-09-23T08:07:51.072Z,253.12
2022-09-23T08:08:53.350Z,253.12
2022-09-23T08:09:50.890Z,253.12
2022-09-23T08:10:52.026Z,247.50
2022-09-23T08:11:51.032Z,247.50
2022-09-23T08:12:50.863Z,247.50
2022-09-23T08:13:50.953Z,247.50
2022-09-23T08:14:50.932Z,241.88
2022-09-23T08:15:55.357Z,241.88
2022-09-23T08:16:50.758Z,241.88
2022-09-23T08:17:51.017Z,241.88
2022-09-23T08:18:51.806Z,241.88
2022-09-23T08:19:51.241Z,241.88
2022-09-23T08:20:51.032Z,236.25
2022-09-23T08:21:50.706Z,241.88
2022-09-23T08:22:50.699Z,236.25
2022-09-23T08:23:50.707Z,236.25
2022-09-23T08:24:52.672Z,241.88
2022-09-23T08:25:51.663Z,236.25
2022-09-23T08:26:51.074Z,236.25
2022-09-23T08:27:51.040Z,236.25
2022-09-23T08:28:50.953Z,241.88
2022-09-23T08:29:50.625Z,241.88
2022-09-23T08:30:50.702Z,241.88
2022-09-23T08:31:50.869Z,241.88
2022-09-23T08:32:50.619Z,241.88
2022-09-23T08:33:50.696Z,247.50
2022-09-23T08:34:50.662Z,253.12
2022-09-23T08:35:50.606Z,258.75
2022-09-23T08:36:50.567Z,258.75
2022-09-23T08:37:50.476Z,264.38
2022-09-23T08:38:50.782Z,270.00
2022-09-23T08:39:50.507Z,281.25
2022-09-23T08:40:50.517Z,286.88
2022-09-23T08:41:53.818Z,292.50
2022-09-23T08:42:51.427Z,298.12
2022-09-23T08:43:50.416Z,298.12
2022-09-23T08:44:50.448Z,309.38
2022-09-23T08:45:50.380Z,309.38
2022-09-23T08:46:50.375Z,315.00
2022-09-23T08:47:50.351Z,320.62
2022-09-23T08:48:50.332Z,326.25
2022-09-23T08:49:51.351Z,326.25
2022-09-23T08:50:50.351Z,331.88
2022-09-23T08:51:50.904Z,331.88
2022-09-23T08:52:50.317Z,331.88
2022-09-23T08:53:50.293Z,337.50
2022-09-23T08:54:55.154Z,331.88
2022-09-23T08:55:51.241Z,331.88
2022-09-23T08:56:50.252Z,331.88
2022-09-23T08:58:07.923Z,337.50
2022-09-23T08:58:51.259Z,331.88
2022-09-23T08:59:50.295Z,331.88
2022-09-23T09:00:50.206Z,326.25
2022-09-23T09:01:51.201Z,320.62
2022-09-23T09:02:50.216Z,315.00
2022-09-23T09:03:50.143Z,309.38
2022-09-23T09:04:50.142Z,303.75
2022-09-23T09:05:54.197Z,298.12
2022-09-23T09:06:54.078Z,292.50
2022-09-23T09:07:50.100Z,286.88
2022-09-23T09:08:50.105Z,281.25
2022-09-23T09:09:50.978Z,281.25
2022-09-23T09:10:50.889Z,275.62
2022-09-23T09:11:50.045Z,270.00
2022-09-23T09:12:50.103Z,264.38
2022-09-23T09:13:50.045Z,258.75
2022-09-23T09:14:50.018Z,258.75
2022-09-23T09:15:50.075Z,258.75
2022-09-23T09:17:00.084Z,264.38
2022-09-23T09:17:51.027Z,270.00
2022-09-23T09:18:49.989Z,264.38
2022-09-23T09:19:51.029Z,264.38
2022-09-23T09:20:49.958Z,264.38
2022-09-23T09:21:50.215Z,264.38
2022-09-23T09:22:50.210Z,258.75
2022-09-23T09:23:50.069Z,258.75
2022-09-23T09:24:49.900Z,253.12
2022-09-23T09:25:49.925Z,253.12
2022-09-23T09:26:49.891Z,253.12
2022-09-23T09:27:49.823Z,247.50
2022-09-23T09:28:49.841Z,247.50
2022-09-23T09:29:50.591Z,247.50
2022-09-23T09:30:51.042Z,247.50
2022-09-23T09:31:50.911Z,247.50
2022-09-23T09:32:49.799Z,247.50
2022-09-23T09:33:50.004Z,247.50
2022-09-23T09:34:49.748Z,247.50
2022-09-23T09:35:49.801Z,247.50
2022-09-23T09:36:50.937Z,247.50
2022-09-23T09:37:49.767Z,247.50
2022-09-23T09:38:49.862Z,247.50
2022-09-23T09:39:49.720Z,247.50
2022-09-23T09:40:49.724Z,241.88
2022-09-23T09:41:50.460Z,241.88
2022-09-23T09:42:49.655Z,241.88
2022-09-23T09:43:49.892Z,241.88
2022-09-23T09:44:50.686Z,236.25
2022-09-23T09:45:53.825Z,236.25
2022-09-23T09:46:50.813Z,230.62
2022-09-23T09:47:49.702Z,230.62
2022-09-23T09:48:50.803Z,230.62
2022-09-23T09:49:49.662Z,225.00
2022-09-23T09:50:49.631Z,225.00
2022-09-23T09:51:49.583Z,219.38
2022-09-23T09:52:49.551Z,219.38
2022-09-23T09:53:49.505Z,219.38
2022-09-23T09:54:50.205Z,219.38
2022-09-23T09:55:49.990Z,213.75
2022-09-23T09:56:49.704Z,213.75
2022-09-23T09:57:49.707Z,213.75
2022-09-23T09:58:49.391Z,213.75
2022-09-23T09:59:49.387Z,208.12
2022-09-23T10:00:50.629Z,208.12
2022-09-23T10:01:49.477Z,213.75
2022-09-23T10:02:49.722Z,213.75
2022-09-23T10:03:49.545Z,213.75
2022-09-23T10:04:49.760Z,208.12
2022-09-23T10:05:49.717Z,208.12
2022-09-23T10:06:49.332Z,213.75
2022-09-23T10:07:49.287Z,208.12
2022-09-23T10:08:49.299Z,213.75
2022-09-23T10:09:49.232Z,213.75
2022-09-23T10:10:49.701Z,219.38
2022-09-23T10:11:49.729Z,225.00
2022-09-23T10:12:49.204Z,230.62
2022-09-23T10:13:49.304Z,230.62
2022-09-23T10:14:49.191Z,236.25
2022-09-23T10:15:49.225Z,236.25
2022-09-23T10:16:50.161Z,241.88
2022-09-23T10:17:49.206Z,253.12
2022-09-23T10:18:49.104Z,258.75
2022-09-23T10:19:49.392Z,264.38
2022-09-23T10:20:49.119Z,270.00
2022-09-23T10:21:49.445Z,275.62
2022-09-23T10:22:49.054Z,275.62
2022-09-23T10:23:49.578Z,281.25
2022-09-23T10:24:49.021Z,281.25
2022-09-23T10:25:49.007Z,275.62
2022-09-23T10:26:50.175Z,275.62
2022-09-23T10:27:49.235Z,270.00
2022-09-23T10:28:49.222Z,275.62
2022-09-23T10:29:48.995Z,286.88
2022-09-23T10:30:49.953Z,303.75
2022-09-23T10:31:49.036Z,315.00
2022-09-23T10:32:48.953Z,315.00
2022-09-23T10:33:48.945Z,326.25
2022-09-23T10:34:48.954Z,331.88
2022-09-23T10:35:49.828Z,331.88
2022-09-23T10:36:48.917Z,331.88
2022-09-23T10:37:48.879Z,337.50
2022-09-23T10:38:48.989Z,337.50
2022-09-23T10:39:48.872Z,343.12
2022-09-23T10:40:49.343Z,343.12
2022-09-23T10:41:48.844Z,348.75
2022-09-23T10:42:48.810Z,354.38
2022-09-23T10:43:48.789Z,354.38
2022-09-23T10:44:49.940Z,348.75
2022-09-23T10:45:48.793Z,348.75
2022-09-23T10:46:48.782Z,343.12
2022-09-23T10:47:48.777Z,337.50
2022-09-23T10:48:48.720Z,337.50
2022-09-23T10:49:48.707Z,337.50
2022-09-23T10:50:48.708Z,331.88
2022-09-23T10:51:48.735Z,326.25
2022-09-23T10:52:48.670Z,320.62
2022-09-23T10:53:48.687Z,315.00
2022-09-23T10:54:48.828Z,315.00
2022-09-23T10:55:48.674Z,303.75
2022-09-23T10:56:49.861Z,303.75
2022-09-23T10:57:48.622Z,309.38
2022-09-23T10:58:48.624Z,303.75
2022-09-23T10:59:48.568Z,303.75
2022-09-23T11:00:48.700Z,298.12
2022-09-23T11:01:48.649Z,286.88
2022-09-23T11:02:48.589Z,286.88
2022-09-23T11:03:49.716Z,270.00
2022-09-23T11:04:49.727Z,264.38
2022-09-23T11:05:48.509Z,258.75
2022-09-23T11:06:49.182Z,253.12
2022-09-23T11:07:48.727Z,253.12
2022-09-23T11:08:48.524Z,258.75
2022-09-23T11:09:48.554Z,258.75
2022-09-23T11:10:48.488Z,270.00
2022-09-23T11:11:49.463Z,281.25
2022-09-23T11:12:49.365Z,292.50
2022-09-23T11:13:54.074Z,298.12
2022-09-23T11:14:49.853Z,303.75
2022-09-23T11:15:48.493Z,315.00
2022-09-23T11:16:48.427Z,320.62
2022-09-23T11:17:49.391Z,315.00
2022-09-23T11:18:48.461Z,326.25
2022-09-23T11:19:48.932Z,331.88
2022-09-23T11:20:48.501Z,331.88
2022-09-23T11:21:48.332Z,337.50
2022-09-23T11:22:48.321Z,343.12
2022-09-23T11:23:49.336Z,354.38
2022-09-23T11:24:48.308Z,360.00
2022-09-23T11:25:48.274Z,365.62
2022-09-23T11:26:48.269Z,360.00
2022-09-23T11:27:48.265Z,354.38
2022-09-23T11:28:48.490Z,360.00
2022-09-23T11:29:49.265Z,371.25
2022-09-23T11:30:48.407Z,371.25
2022-09-23T11:31:48.215Z,360.00
2022-09-23T11:32:48.305Z,354.38
2022-09-23T11:33:49.111Z,354.38
2022-09-23T11:34:52.525Z,354.38
2022-09-23T11:35:49.394Z,354.38
2022-09-23T11:36:48.197Z,365.62
2022-09-23T11:37:48.105Z,376.88
2022-09-23T11:38:48.138Z,393.75
2022-09-23T11:39:48.186Z,399.38
2022-09-23T11:40:48.143Z,399.38
2022-09-23T11:41:48.425Z,393.75
2022-09-23T11:42:49.044Z,393.75
2022-09-23T11:43:48.952Z,393.75
2022-09-23T11:44:48.120Z,388.12
2022-09-23T11:45:48.262Z,388.12
2022-09-23T11:46:48.079Z,382.50
2022-09-23T11:47:49.083Z,382.50
2022-09-23T11:48:48.069Z,376.88
2022-09-23T11:49:48.096Z,382.50
2022-09-23T11:50:48.205Z,388.12
2022-09-23T11:51:48.212Z,388.12
2022-09-23T11:52:47.959Z,393.75
2022-09-23T11:53:48.204Z,399.38
2022-09-23T11:54:48.927Z,405.00
2022-09-23T11:55:56.864Z,399.38
2022-09-23T11:56:49.334Z,393.75
2022-09-23T11:57:49.508Z,388.12
2022-09-23T11:58:52.150Z,382.50
2022-09-23T12:00:53.818Z,371.25
2022-09-23T12:01:48.816Z,371.25
2022-09-23T12:03:00.828Z,371.25
2022-09-23T12:03:49.876Z,371.25
2022-09-23T12:04:55.471Z,382.50
2022-09-23T12:05:49.983Z,388.12
2022-09-23T12:06:47.936Z,393.75
2022-09-23T12:07:48.218Z,405.00
2022-09-23T12:08:47.741Z,421.88
2022-09-23T12:09:58.256Z,427.50
2022-09-23T12:10:48.844Z,427.50
2022-09-23T12:11:47.714Z,421.88
2022-09-23T12:12:48.736Z,427.50
2022-09-23T12:13:48.635Z,433.12
2022-09-23T12:14:48.501Z,455.62
2022-09-23T12:15:47.719Z,466.88
2022-09-23T12:16:47.721Z,472.50
2022-09-23T12:17:48.763Z,466.88
2022-09-23T12:18:48.529Z,455.62
2022-09-23T12:19:48.584Z,455.62
2022-09-23T12:20:47.626Z,455.62
2022-09-23T12:21:51.529Z,455.62
2022-09-23T12:22:47.594Z,455.62
2022-09-23T12:23:47.639Z,466.88
2022-09-23T12:24:47.544Z,466.88
2022-09-23T12:25:47.509Z,472.50
2022-09-23T12:26:47.617Z,478.12
2022-09-23T12:27:47.974Z,478.12
2022-09-23T12:28:47.496Z,478.12
2022-09-23T12:29:47.729Z,478.12
2022-09-23T12:30:47.485Z,483.75
2022-09-23T12:31:47.452Z,483.75
2022-09-23T12:32:48.058Z,495.00
2022-09-23T12:33:47.486Z,495.00
2022-09-23T12:34:48.318Z,489.38
2022-09-23T12:35:47.489Z,489.38
2022-09-23T12:36:47.449Z,500.62
2022-09-23T12:37:47.396Z,500.62
2022-09-23T12:38:48.285Z,506.25
2022-09-23T12:39:48.263Z,506.25
2022-09-23T12:40:47.372Z,511.88
2022-09-23T12:41:48.023Z,517.50
2022-09-23T12:42:47.311Z,523.12
2022-09-23T12:43:47.324Z,523.12
2022-09-23T12:44:48.224Z,528.75
2022-09-23T12:45:47.325Z,528.75
2022-09-23T12:46:47.364Z,528.75
2022-09-23T12:47:47.257Z,528.75
2022-09-23T12:48:47.502Z,534.38
2022-09-23T12:49:48.675Z,534.38